Ashland, Kentucky
Current Conditions -  °F | °C
As of 4:15 PM on Tuesday 21 Oct 2014 (Local Time) from KDWU Reporting Station
Overcast Overcast  
Wind Chill: 54°   Ceiling: 6000
Heat Index: 54°   Visibility: 10mi
Dew Point: 43°   Wind: 6mph
Humidity: 67%   Direction: 320°NW
Pressure: 30.01"   Gusts: NA
Location:  38.48°N, 82.64°W
Report Text: KDWU 212015Z AUTO 32005KT 10SM FEW031 SCT041 OVC060 12/06 A3001 RMK AO1
Loading
Personal Weather Stations






























Interactive Weather Map
Tropical Storm Tracking
New forecast layout! Learn more

10-Day Weather Forecast

Advertisements
Track Severe Weather on mobile